Time;durP1;ratioP1;P1;durP2;ratioP2;P2;SDS_P1;SDS_P2;PMS_P1;PMS_P2;Temp;Humidity;BMP_temperature;BMP_pressure;BME280_temperature;BME280_humidity;BME280_pressure;Samples;Min_cycle;Max_cycle;Signal;HPM_P1;HPM_P2
2022/06/03 00:01:03;;;;;;;;;;;;;;;26.74;55.09;98830.16;2081785;28;20414;-56
2022/06/03 00:02:14;;;;;;;;;;;;;;;26.72;55.40;98832.31;2082413;28;20427;-55
2022/06/03 00:03:29;;;;;;;;;;;;;;;26.73;55.39;98833.13;2081200;28;19929;-56
2022/06/03 00:04:42;;;;;;;;;;;;;;;26.73;55.56;98838.56;2080877;28;20027;-55
2022/06/03 00:05:57;;;;;;;;;;;;;;;26.71;55.59;98840.72;2082507;28;20002;-53
2022/06/03 00:07:06;;;;;;;;;;;;;;;26.70;55.44;98834.44;2081925;28;19936;-55
2022/06/03 00:08:28;;;;;;;;;;;;;;;26.73;55.40;98824.97;2082027;28;19928;-53
2022/06/03 00:09:46;;;;;;;;;;;;;;;26.74;55.77;98826.59;2079635;28;19928;-56
2022/06/03 00:11:01;;;;;;;;;;;;;;;26.74;55.23;98826.59;2083272;28;19979;-55
2022/06/03 00:12:19;;;;;;;;;;;;;;;26.72;55.42;98835.03;2081883;28;19935;-53
2022/06/03 00:13:30;;;;;;;;;;;;;;;26.75;55.72;98836.44;2080925;28;20591;-55
2022/06/03 00:14:46;;;;;;;;;;;;;;;26.76;55.52;98838.06;2082239;28;19936;-53
2022/06/03 00:16:00;;;;;;;;;;;;;;;26.73;55.64;98833.13;2081139;28;19929;-53
2022/06/03 00:17:07;;;;;;;;;;;;;;;26.72;55.72;98828.78;2082425;28;19935;-54
2022/06/03 00:18:26;;;;;;;;;;;;;;;26.73;55.48;98838.56;2079910;28;19968;-54
2022/06/03 00:19:34;;;;;;;;;;;;;;;26.71;55.80;98832.56;2081735;28;20409;-55
2022/06/03 00:20:42;;;;;;;;;;;;;;;26.73;55.76;98835.84;2081864;28;19935;-54
2022/06/03 00:21:50;;;;;;;;;;;;;;;26.75;55.46;98830.97;2081479;28;19929;-55
2022/06/03 00:22:58;;;;;;;;;;;;;;;26.74;55.68;98827.44;2080083;28;19956;-56
2022/06/03 00:24:12;;;;;;;;;;;;;;;26.73;55.68;98833.13;2081681;28;20303;-54
2022/06/03 00:25:22;;;;;;;;;;;;;;;26.72;55.45;98831.50;2081496;28;19994;-54
2022/06/03 00:26:40;;;;;;;;;;;;;;;26.75;55.63;98833.72;2081567;28;19929;-55
2022/06/03 00:27:57;;;;;;;;;;;;;;;26.73;55.70;98822.25;2065863;28;19932;-56
2022/06/03 00:29:10;;;;;;;;;;;;;;;26.74;55.78;98835.63;2078126;28;19932;-55
2022/06/03 00:30:21;;;;;;;;;;;;;;;26.71;55.77;98827.09;2080398;28;20524;-56
2022/06/03 00:31:33;;;;;;;;;;;;;;;26.70;55.81;98820.84;2080161;28;19928;-54
2022/06/03 00:32:53;;;;;;;;;;;;;;;26.70;55.69;98833.63;2081492;28;20035;-54
2022/06/03 00:34:06;;;;;;;;;;;;;;;26.70;55.75;98826.28;2076968;28;19940;-56
2022/06/03 00:35:19;;;;;;;;;;;;;;;26.72;55.42;98826.06;2081531;28;19935;-54
2022/06/03 00:36:26;;;;;;;;;;;;;;;26.69;55.56;98827.38;2077955;28;19964;-55
2022/06/03 00:37:31;;;;;;;;;;;;;;;26.71;55.74;98819.75;2080841;28;19940;-55
2022/06/03 00:38:42;;;;;;;;;;;;;;;26.71;55.71;98819.75;2079065;28;20578;-55
2022/06/03 00:39:54;;;;;;;;;;;;;;;26.71;55.86;98824.38;2082279;28;19935;-54
2022/06/03 00:41:05;;;;;;;;;;;;;;;26.72;55.58;98820.63;2081644;28;20059;-56
2022/06/03 00:42:15;;;;;;;;;;;;;;;26.72;55.44;98820.63;2084036;28;19933;-54
2022/06/03 00:43:29;;;;;;;;;;;;;;;26.73;55.55;98824.97;2081209;28;20406;-56
2022/06/03 00:44:47;;;;;;;;;;;;;;;26.72;55.70;98821.44;2082462;28;20621;-54
2022/06/03 00:45:57;;;;;;;;;;;;;;;26.73;55.80;98828.50;2081279;28;19929;-55
2022/06/03 00:47:03;;;;;;;;;;;;;;;26.72;55.82;98817.88;2081877;28;19929;-55
2022/06/03 00:48:12;;;;;;;;;;;;;;;26.72;55.71;98816.00;2082590;28;19936;-54
2022/06/03 00:49:27;;;;;;;;;;;;;;;26.70;55.74;98818.13;2082812;28;19935;-55
2022/06/03 00:50:41;;;;;;;;;;;;;;;26.69;55.81;98812.91;2081868;28;19968;-56
2022/06/03 00:51:58;;;;;;;;;;;;;;;26.69;55.72;98819.22;2083674;28;20654;-54
2022/06/03 00:53:16;;;;;;;;;;;;;;;26.69;55.91;98818.38;2084096;28;20005;-57
2022/06/03 00:54:29;;;;;;;;;;;;;;;26.72;55.41;98820.63;2083204;28;19935;-54
2022/06/03 00:55:50;;;;;;;;;;;;;;;26.69;55.88;98827.38;2083919;28;19928;-53
2022/06/03 00:57:03;;;;;;;;;;;;;;;26.70;55.67;98825.47;2085103;28;20456;-59
2022/06/03 00:58:19;;;;;;;;;;;;;;;26.69;55.76;98827.38;2084721;28;21263;-58
2022/06/03 00:59:38;;;;;;;;;;;;;;;26.69;55.99;98826.53;2084812;28;19924;-54
2022/06/03 01:00:43;;;;;;;;;;;;;;;26.69;55.67;98829.25;2083505;28;19935;-55
2022/06/03 01:01:48;;;;;;;;;;;;;;;26.69;55.46;98829.25;2085060;28;19932;-56
2022/06/03 01:03:05;;;;;;;;;;;;;;;26.70;55.81;98823.56;2083367;28;19928;-54
2022/06/03 01:04:19;;;;;;;;;;;;;;;26.67;56.01;98834.97;2083955;28;19939;-57
2022/06/03 01:05:30;;;;;;;;;;;;;;;26.70;55.54;98836.34;2082905;28;19936;-52
2022/06/03 01:06:43;;;;;;;;;;;;;;;26.69;55.75;98832.81;2085111;28;19959;-57
2022/06/03 01:07:49;;;;;;;;;;;;;;;26.69;55.91;98832.81;2083498;28;19940;-56
2022/06/03 01:08:59;;;;;;;;;;;;;;;26.68;55.76;98831.16;2081803;28;19929;-57
2022/06/03 01:10:10;;;;;;;;;;;;;;;26.68;55.82;98830.34;2084339;28;19935;-56
2022/06/03 01:11:30;;;;;;;;;;;;;;;26.68;55.60;98827.63;2083006;28;19971;-56
2022/06/03 01:12:49;;;;;;;;;;;;;;;26.68;55.93;98830.34;2084505;28;20311;-57
2022/06/03 01:13:58;;;;;;;;;;;;;;;26.67;55.96;98829.50;2085554;28;20624;-58
2022/06/03 01:15:07;;;;;;;;;;;;;;;26.68;55.65;98831.16;2084787;28;19969;-57
2022/06/03 01:16:18;;;;;;;;;;;;;;;26.69;55.53;98832.81;2084662;28;19999;-56
2022/06/03 01:17:27;;;;;;;;;;;;;;;26.69;55.65;98826.53;2085899;28;19935;-52
2022/06/03 01:18:36;;;;;;;;;;;;;;;26.68;55.98;98833.06;2082549;28;19928;-54
2022/06/03 01:19:55;;;;;;;;;;;;;;;26.69;55.88;98823.81;2083150;28;19928;-56
2022/06/03 01:21:01;;;;;;;;;;;;;;;26.68;55.74;98819.44;2083789;28;19986;-54
2022/06/03 01:22:17;;;;;;;;;;;;;;;26.69;55.41;98826.53;2084256;28;20332;-53
2022/06/03 01:23:29;;;;;;;;;;;;;;;26.69;55.64;98824.66;2081775;28;20635;-52
2022/06/03 01:24:43;;;;;;;;;;;;;;;26.70;55.42;98820.84;2082145;28;20634;-55
2022/06/03 01:26:01;;;;;;;;;;;;;;;26.71;55.36;98824.38;2083706;28;20809;-55
2022/06/03 01:27:20;;;;;;;;;;;;;;;26.71;55.34;98824.38;2083611;28;19935;-54
2022/06/03 01:28:36;;;;;;;;;;;;;;;26.68;55.24;98820.28;2083958;28;19956;-54
2022/06/03 01:29:51;;;;;;;;;;;;;;;26.69;55.64;98815.66;2083533;28;19929;-56
2022/06/03 01:31:00;;;;;;;;;;;;;;;26.68;55.35;98819.44;2084126;28;19932;-56
2022/06/03 01:32:23;;;;;;;;;;;;;;;26.66;55.89;98827.03;2083628;28;19928;-56
2022/06/03 01:33:34;;;;;;;;;;;;;;;26.64;55.66;98823.78;2082180;28;19928;-61
2022/06/03 01:34:42;;;;;;;;;;;;;;;26.66;55.84;98821.59;2083251;28;19928;-58
2022/06/03 01:36:02;;;;;;;;;;;;;;;26.68;55.63;98824.91;2083209;28;19929;-56
2022/06/03 01:37:09;;;;;;;;;;;;;;;26.67;55.60;98820.53;2084070;28;19986;-52
2022/06/03 01:38:17;;;;;;;;;;;;;;;26.65;55.68;98818.06;2083810;28;19960;-59
2022/06/03 01:39:30;;;;;;;;;;;;;;;26.65;56.00;98823.50;2084534;28;21021;-54
2022/06/03 01:40:44;;;;;;;;;;;;;;;26.66;55.94;98818.88;2083321;28;19933;-56
2022/06/03 01:41:52;;;;;;;;;;;;;;;26.67;55.77;98809.66;2081409;28;19998;-55
2022/06/03 01:43:12;;;;;;;;;;;;;;;26.67;55.78;98812.38;2084377;28;19955;-58
2022/06/03 01:44:34;;;;;;;;;;;;;;;26.66;55.76;98805.28;2083495;28;19929;-55
2022/06/03 01:45:49;;;;;;;;;;;;;;;26.66;55.60;98811.56;2058752;28;19936;-59
2022/06/03 01:47:06;;;;;;;;;;;;;;;26.66;55.44;98802.56;2057102;28;20016;-58
2022/06/03 01:48:17;;;;;;;;;;;;;;;26.67;55.78;98796.88;2080597;28;20602;-56
2022/06/03 01:49:39;;;;;;;;;;;;;;;26.64;55.64;98802.00;2082980;28;20011;-57
2022/06/03 01:50:48;;;;;;;;;;;;;;;26.65;55.58;98798.19;2082058;28;20541;-54
2022/06/03 01:52:00;;;;;;;;;;;;;;;26.63;55.64;98803.88;2084976;28;19932;-55
2022/06/03 01:53:25;;;;;;;;;;;;;;;26.65;55.54;98803.63;2083587;28;19929;-58
2022/06/03 01:54:37;;;;;;;;;;;;;;;26.64;55.93;98799.28;2084268;28;19929;-57
2022/06/03 01:56:12;;;;;;;;;;;;;;;26.63;55.50;98800.34;2082214;28;19935;-56
2022/06/03 01:57:27;;;;;;;;;;;;;;;26.65;55.93;98799.00;2083137;28;19928;-55
2022/06/03 01:58:43;;;;;;;;;;;;;;;26.65;55.98;98795.47;2081203;28;20885;-53
2022/06/03 01:59:59;;;;;;;;;;;;;;;26.65;56.02;98800.91;2084436;28;20378;-58
2022/06/03 02:01:09;;;;;;;;;;;;;;;26.65;55.92;98803.63;2080677;28;19968;-51
2022/06/03 02:02:25;;;;;;;;;;;;;;;26.62;56.03;98798.69;2085997;28;21207;-55
2022/06/03 02:03:50;;;;;;;;;;;;;;;26.63;55.93;98806.59;2083398;28;20923;-55
2022/06/03 02:05:08;;;;;;;;;;;;;;;26.63;55.54;98803.06;2083292;28;19933;-55
2022/06/03 02:06:27;;;;;;;;;;;;;;;26.64;55.70;98812.88;2083792;28;19928;-54
2022/06/03 02:07:40;;;;;;;;;;;;;;;26.63;55.62;98808.50;2050508;28;19930;-56
2022/06/03 02:08:59;;;;;;;;;;;;;;;26.62;55.64;98799.53;2084555;28;20050;-56
2022/06/03 02:10:25;;;;;;;;;;;;;;;26.64;55.76;98797.38;2083390;28;20420;-55
2022/06/03 02:11:43;;;;;;;;;;;;;;;26.66;55.71;98799.81;2083457;28;19928;-56
2022/06/03 02:13:12;;;;;;;;;;;;;;;26.68;55.09;98803.94;2082708;28;19971;-53
2022/06/03 02:14:39;;;;;;;;;;;;;;;26.67;55.21;98790.63;2064586;28;19936;-55
2022/06/03 02:16:03;;;;;;;;;;;;;;;26.68;55.43;98792.25;2082601;28;19986;-54
2022/06/03 02:17:22;;;;;;;;;;;;;;;26.67;55.22;98793.34;2084001;28;19940;-56
2022/06/03 02:18:40;;;;;;;;;;;;;;;26.66;55.33;98794.38;2082685;28;20027;-58
2022/06/03 02:19:51;;;;;;;;;;;;;;;26.63;55.34;98793.00;2082530;28;19987;-54
2022/06/03 02:21:05;;;;;;;;;;;;;;;26.62;55.67;98794.06;2084055;28;20494;-52
2022/06/03 02:22:21;;;;;;;;;;;;;;;26.62;55.59;98796.81;2081580;28;20023;-53
2022/06/03 02:23:36;;;;;;;;;;;;;;;26.61;55.52;98802.50;2080195;28;19928;-52
2022/06/03 02:24:56;;;;;;;;;;;;;;;26.62;55.89;98804.16;2083287;28;19964;-55
2022/06/03 02:26:12;;;;;;;;;;;;;;;26.63;55.76;98800.34;2084977;28;20415;-52
2022/06/03 02:27:37;;;;;;;;;;;;;;;26.61;55.79;98795.16;2080595;28;19929;-53
2022/06/03 02:30:24;;;;;;;;;;;;;;;26.61;55.52;98799.78;2083005;28;19936;-51
2022/06/03 02:30:30;;;;;;;;;;;;;;;26.61;55.81;98805.22;2082347;28;19929;-56
2022/06/03 02:31:36;;;;;;;;;;;;;;;26.62;55.59;98806.88;2081146;28;20413;-56
2022/06/03 02:32:47;;;;;;;;;;;;;;;26.61;55.86;98816.13;2083472;28;20022;-58
2022/06/03 02:34:07;;;;;;;;;;;;;;;26.61;55.79;98810.66;2082934;28;19928;-52
2022/06/03 02:35:19;;;;;;;;;;;;;;;26.59;55.45;98813.63;2083132;28;20067;-54
2022/06/03 02:36:44;;;;;;;;;;;;;;;26.61;55.82;98805.22;2084591;28;19929;-55
2022/06/03 02:38:03;;;;;;;;;;;;;;;26.61;55.55;98814.22;2083343;28;19933;-53
2022/06/03 02:39:12;;;;;;;;;;;;;;;26.61;55.81;98808.75;2080297;28;19936;-54
2022/06/03 02:40:35;;;;;;;;;;;;;;;26.61;55.79;98807.94;2083745;28;21014;-55
2022/06/03 02:42:00;;;;;;;;;;;;;;;26.61;55.92;98818.84;2082526;28;20062;-59
2022/06/03 02:43:16;;;;;;;;;;;;;;;26.61;55.36;98819.66;2065742;28;19928;-54
2022/06/03 02:44:36;;;;;;;;;;;;;;;26.62;55.60;98820.47;2080706;28;19964;-54
2022/06/03 02:45:56;;;;;;;;;;;;;;;26.62;55.82;98820.47;2081461;28;19935;-56
2022/06/03 02:47:31;;;;;;;;;;;;;;;26.61;55.95;98814.22;2079910;28;20421;-57
2022/06/03 02:48:43;;;;;;;;;;;;;;;26.61;55.95;98808.75;2049051;28;19930;-57
2022/06/03 02:50:03;;;;;;;;;;;;;;;26.59;55.79;98810.91;2050970;28;20068;-54
2022/06/03 02:51:16;;;;;;;;;;;;;;;26.60;55.54;98819.88;2050107;28;20695;-56
2022/06/03 02:52:36;;;;;;;;;;;;;;;26.61;55.94;98824.28;2050989;28;19929;-53
2022/06/03 02:54:09;;;;;;;;;;;;;;;26.61;55.79;98819.66;2051844;28;19930;-55
2022/06/03 02:55:27;;;;;;;;;;;;;;;26.60;55.84;98815.25;2050510;28;21169;-52
2022/06/03 02:56:46;;;;;;;;;;;;;;;26.60;55.76;98817.16;2051060;28;20392;-56
2022/06/03 02:58:05;;;;;;;;;;;;;;;26.61;55.92;98818.84;2069193;28;19928;-55
2022/06/03 02:59:19;;;;;;;;;;;;;;;26.61;55.51;98813.38;2082954;28;19982;-56
2022/06/03 03:00:23;;;;;;;;;;;;;;;26.60;55.97;98820.69;2083763;28;19928;-54
2022/06/03 03:01:36;;;;;;;;;;;;;;;26.59;56.00;98813.63;2082739;28;19928;-55
2022/06/03 03:02:40;;;;;;;;;;;;;;;26.60;55.91;98817.16;2083976;28;20037;-53
2022/06/03 03:03:50;;;;;;;;;;;;;;;26.57;55.98;98818.50;2079359;28;19929;-54
2022/06/03 03:04:56;;;;;;;;;;;;;;;26.57;56.02;98814.94;2081677;28;20486;-52
2022/06/03 03:06:25;;;;;;;;;;;;;;;26.59;55.74;98815.53;2082006;28;20029;-53
2022/06/03 03:07:48;;;;;;;;;;;;;;;26.59;55.74;98821.78;2080830;28;20386;-52
2022/06/03 03:09:06;;;;;;;;;;;;;;;26.60;56.01;98826.16;2048958;28;20012;-57
2022/06/03 03:10:21;;;;;;;;;;;;;;;26.61;55.98;98824.28;2079736;28;20437;-54
2022/06/03 03:11:41;;;;;;;;;;;;;;;26.59;56.03;98827.22;2079040;28;19940;-50
2022/06/03 03:13:03;;;;;;;;;;;;;;;26.60;55.95;98825.31;2077443;28;20051;-54
2022/06/03 03:14:15;;;;;;;;;;;;;;;26.60;55.98;98822.59;2081879;28;19962;-54
2022/06/03 03:15:28;;;;;;;;;;;;;;;26.57;55.69;98823.13;2080829;28;20027;-51
2022/06/03 03:16:41;;;;;;;;;;;;;;;26.57;55.64;98826.66;2082857;28;19928;-52
2022/06/03 03:17:54;;;;;;;;;;;;;;;26.58;56.03;98824.75;2082680;28;19935;-53
2022/06/03 03:19:11;;;;;;;;;;;;;;;26.57;55.62;98829.38;2082440;28;20341;-53
2022/06/03 03:20:31;;;;;;;;;;;;;;;26.57;55.68;98823.94;2083464;28;19929;-54
2022/06/03 03:21:45;;;;;;;;;;;;;;;26.58;55.75;98836.47;2080494;28;19928;-54
2022/06/03 03:23:05;;;;;;;;;;;;;;;26.59;55.84;98831.84;2081328;28;19929;-54
2022/06/03 03:24:22;;;;;;;;;;;;;;;26.58;55.65;98835.63;2069883;28;19936;-55
2022/06/03 03:25:38;;;;;;;;;;;;;;;26.58;55.09;98827.47;2083377;28;19932;-55
2022/06/03 03:26:47;;;;;;;;;;;;;;;26.56;54.77;98827.75;2082281;28;19939;-56
2022/06/03 03:28:09;;;;;;;;;;;;;;;26.57;54.87;98823.94;2082784;28;19961;-55
2022/06/03 03:29:18;;;;;;;;;;;;;;;26.57;55.01;98831.28;2056869;28;19961;-55
2022/06/03 03:30:22;;;;;;;;;;;;;;;26.59;55.06;98838.13;2081712;28;19935;-53
2022/06/03 03:31:49;;;;;;;;;;;;;;;26.58;54.60;98833.75;2079101;28;20769;-53
2022/06/03 03:33:10;;;;;;;;;;;;;;;26.58;54.96;98838.34;2056815;28;19938;-56
2022/06/03 03:34:19;;;;;;;;;;;;;;;26.57;54.38;98837.53;2082578;28;19939;-52
2022/06/03 03:35:23;;;;;;;;;;;;;;;26.57;54.34;98836.72;2082361;28;20029;-53
2022/06/03 03:36:40;;;;;;;;;;;;;;;26.59;54.75;98840.00;2083616;28;19957;-53
2022/06/03 03:38:01;;;;;;;;;;;;;;;26.57;54.59;98834.81;2080849;28;19948;-53
2022/06/03 03:39:21;;;;;;;;;;;;;;;26.56;54.70;98840.53;2079888;28;20126;-56
2022/06/03 03:40:43;;;;;;;;;;;;;;;26.56;54.52;98835.09;2078910;28;19991;-56
2022/06/03 03:42:08;;;;;;;;;;;;;;;26.55;54.51;98836.97;2081954;28;19983;-53
2022/06/03 03:43:19;;;;;;;;;;;;;;;26.54;54.37;98839.94;2049440;28;20005;-53
2022/06/03 03:44:40;;;;;;;;;;;;;;;26.54;54.83;98839.94;2051276;28;20566;-51
2022/06/03 03:46:05;;;;;;;;;;;;;;;26.55;55.00;98838.84;2082051;28;19928;-54
2022/06/03 03:47:33;;;;;;;;;;;;;;;26.56;54.84;98832.34;2068274;28;19936;-53
2022/06/03 03:48:53;;;;;;;;;;;;;;;26.56;54.70;98822.28;2080495;28;19935;-53
2022/06/03 03:50:14;;;;;;;;;;;;;;;26.55;54.72;98825.25;2081449;28;19928;-54
2022/06/03 03:51:28;;;;;;;;;;;;;;;26.56;54.87;98826.91;2082335;28;20541;-55
2022/06/03 03:52:48;;;;;;;;;;;;;;;26.53;55.40;98822.81;2080415;28;20819;-53
2022/06/03 03:54:07;;;;;;;;;;;;;;;26.53;55.35;98825.53;2076405;28;19929;-54
2022/06/03 03:55:20;;;;;;;;;;;;;;;26.52;55.32;98829.28;2080325;28;20268;-54
2022/06/03 03:56:44;;;;;;;;;;;;;;;26.51;55.51;98824.94;2082482;28;20398;-53
2022/06/03 03:58:11;;;;;;;;;;;;;;;26.52;55.74;98827.44;2079701;28;20839;-55
2022/06/03 03:59:42;;;;;;;;;;;;;;;26.53;55.46;98833.69;2078244;28;19929;-57
2022/06/03 04:01:04;;;;;;;;;;;;;;;26.54;55.71;98838.03;2082480;28;19929;-57
2022/06/03 04:02:22;;;;;;;;;;;;;;;26.53;55.62;98833.69;2062861;28;20034;-57
2022/06/03 04:03:44;;;;;;;;;;;;;;;26.52;55.51;98840.19;2082279;28;19935;-55
2022/06/03 04:05:00;;;;;;;;;;;;;;;26.52;55.70;98841.03;2074405;28;20609;-53
2022/06/03 04:06:20;;;;;;;;;;;;;;;26.55;55.84;98855.19;2084048;28;20022;-52
2022/06/03 04:07:40;;;;;;;;;;;;;;;26.53;55.92;98855.44;2077820;28;19928;-54
2022/06/03 04:08:58;;;;;;;;;;;;;;;26.52;55.90;98849.19;2080902;28;19935;-54
2022/06/03 04:10:11;;;;;;;;;;;;;;;26.52;55.93;98854.63;2081706;28;19951;-55
2022/06/03 04:11:20;;;;;;;;;;;;;;;26.52;55.80;98861.94;2080687;28;19929;-52
2022/06/03 04:12:40;;;;;;;;;;;;;;;26.52;55.73;98862.78;2081664;28;20728;-53
2022/06/03 04:14:02;;;;;;;;;;;;;;;26.54;55.36;98862.53;2081107;28;19933;-54
2022/06/03 04:15:24;;;;;;;;;;;;;;;26.53;55.43;98874.47;2079647;28;19995;-55
2022/06/03 04:16:36;;;;;;;;;;;;;;;26.51;55.45;98873.91;2056132;28;19933;-58
2022/06/03 04:17:57;;;;;;;;;;;;;;;26.53;55.39;98871.75;2081272;28;20323;-55
2022/06/03 04:19:22;;;;;;;;;;;;;;;26.54;54.97;98872.59;2080358;28;19936;-54
2022/06/03 04:20:33;;;;;;;;;;;;;;;26.52;54.83;98880.97;2069987;28;19928;-53
2022/06/03 04:21:52;;;;;;;;;;;;;;;26.52;55.14;98879.09;2083678;28;19951;-54
2022/06/03 04:23:06;;;;;;;;;;;;;;;26.52;54.65;98884.53;2080312;28;19963;-53
2022/06/03 04:24:23;;;;;;;;;;;;;;;26.54;54.59;98878.03;2068507;28;19936;-54
2022/06/03 04:25:46;;;;;;;;;;;;;;;26.51;55.11;98879.34;2077229;28;22372;-57
2022/06/03 04:27:04;;;;;;;;;;;;;;;26.52;55.54;98876.38;2056356;28;19963;-56
2022/06/03 04:28:24;;;;;;;;;;;;;;;26.50;55.68;98878.53;2080871;28;19929;-53
2022/06/03 04:29:48;;;;;;;;;;;;;;;26.49;55.68;98885.00;2080511;28;19929;-55
2022/06/03 04:31:04;;;;;;;;;;;;;;;26.49;55.62;98882.31;2078942;28;19940;-53
2022/06/03 04:32:43;;;;;;;;;;;;;;;26.50;55.81;98877.69;2080719;28;20027;-54
2022/06/03 04:33:55;;;;;;;;;;;;;;;26.48;55.82;98886.06;2076519;28;19934;-54
2022/06/03 04:35:14;;;;;;;;;;;;;;;26.47;55.45;98884.44;2081180;28;19964;-54
2022/06/03 04:36:49;;;;;;;;;;;;;;;26.49;55.46;98884.16;2081773;28;19929;-53
2022/06/03 04:38:15;;;;;;;;;;;;;;;26.50;55.64;98881.25;2081142;28;20018;-54
2022/06/03 04:39:36;;;;;;;;;;;;;;;26.49;55.67;98871.41;2079343;28;19955;-53
2022/06/03 04:40:57;;;;;;;;;;;;;;;26.50;55.63;98875.81;2080083;28;20307;-55
2022/06/03 04:42:17;;;;;;;;;;;;;;;26.52;55.24;98872.81;2081243;28;19932;-54
2022/06/03 04:43:37;;;;;;;;;;;;;;;26.50;54.98;98878.53;2080994;28;20346;-53
2022/06/03 04:45:02;;;;;;;;;;;;;;;26.51;55.01;98879.34;2081713;28;20015;-55
2022/06/03 04:46:45;;;;;;;;;;;;;;;26.50;55.25;98883.13;2055006;28;19934;-53
2022/06/03 04:48:14;;;;;;;;;;;;;;;26.49;55.05;98876.00;2068646;28;19933;-54
2022/06/03 04:49:34;;;;;;;;;;;;;;;26.50;54.79;98888.56;2081655;28;19929;-54
2022/06/03 04:51:13;;;;;;;;;;;;;;;26.51;54.85;98888.31;2080317;28;19925;-54
2022/06/03 04:52:34;;;;;;;;;;;;;;;26.50;54.83;98888.56;2081024;28;19929;-54
2022/06/03 04:54:00;;;;;;;;;;;;;;;26.51;55.05;98879.34;2076446;28;19928;-55
2022/06/03 04:55:18;;;;;;;;;;;;;;;26.50;54.26;98889.41;2082674;28;20398;-53
2022/06/03 04:56:49;;;;;;;;;;;;;;;26.47;54.30;98887.16;2080970;28;20949;-53
2022/06/03 04:58:07;;;;;;;;;;;;;;;26.47;54.58;98878.19;2080040;28;19938;-55
2022/06/03 04:59:39;;;;;;;;;;;;;;;26.47;54.81;98883.63;2070321;28;20345;-54
2022/06/03 05:01:01;;;;;;;;;;;;;;;26.48;54.86;98891.50;2055325;28;20064;-55
2022/06/03 05:02:30;;;;;;;;;;;;;;;26.48;54.86;98875.19;2026842;28;19931;-56
2022/06/03 05:04:09;;;;;;;;;;;;;;;26.48;54.91;98877.91;2072366;28;20402;-55
2022/06/03 05:05:40;;;;;;;;;;;;;;;26.43;55.18;98866.94;2081865;28;19936;-54
2022/06/03 05:07:02;;;;;;;;;;;;;;;26.45;55.13;98864.00;2080714;28;19935;-53
2022/06/03 05:08:23;;;;;;;;;;;;;;;26.46;55.39;98863.72;2081603;28;20490;-54
2022/06/03 05:09:41;;;;;;;;;;;;;;;26.48;55.54;98864.31;2082399;28;19998;-59
2022/06/03 05:10:56;;;;;;;;;;;;;;;26.48;55.70;98853.44;2080960;28;20960;-57
2022/06/03 05:12:13;;;;;;;;;;;;;;;26.47;55.59;98849.06;2079992;28;19933;-57
2022/06/03 05:13:32;;;;;;;;;;;;;;;26.47;55.49;98840.09;2078474;28;20410;-56
2022/06/03 05:14:48;;;;;;;;;;;;;;;26.46;55.44;98836.53;2072796;28;19929;-53
2022/06/03 05:16:08;;;;;;;;;;;;;;;26.49;55.36;98837.94;2083083;28;20048;-56
2022/06/03 05:17:39;;;;;;;;;;;;;;;26.49;55.42;98833.34;2085437;28;19929;-54
2022/06/03 05:19:09;;;;;;;;;;;;;;;26.48;55.25;98834.38;2070191;28;19936;-56
2022/06/03 05:20:20;;;;;;;;;;;;;;;26.47;55.60;98831.94;2081212;28;20553;-56
2022/06/03 05:21:39;;;;;;;;;;;;;;;26.48;55.89;98826.22;2081752;28;19933;-55
2022/06/03 05:22:58;;;;;;;;;;;;;;;26.48;55.98;98837.13;2080942;28;19932;-56
2022/06/03 05:24:24;;;;;;;;;;;;;;;26.48;55.99;98847.19;2081725;28;19936;-55
2022/06/03 05:25:53;;;;;;;;;;;;;;;26.46;55.50;98850.13;2080934;28;19959;-51
2022/06/03 05:27:14;;;;;;;;;;;;;;;26.49;55.87;98856.97;2052841;28;20049;-55
2022/06/03 05:28:33;;;;;;;;;;;;;;;26.46;55.47;98866.44;2078297;28;19929;-60
2022/06/03 05:29:41;;;;;;;;;;;;;;;26.47;56.12;98872.75;2081991;28;19935;-56
2022/06/03 05:30:52;;;;;;;;;;;;;;;26.47;56.12;98884.44;2082943;28;21602;-54
2022/06/03 05:32:12;;;;;;;;;;;;;;;26.48;55.69;98890.69;2082630;28;19939;-56
2022/06/03 05:33:31;;;;;;;;;;;;;;;26.47;55.99;98889.88;2082297;28;19932;-58
2022/06/03 05:34:51;;;;;;;;;;;;;;;26.49;55.53;98904.06;2083804;28;20518;-58
2022/06/03 05:36:11;;;;;;;;;;;;;;;26.47;55.86;98899.94;2079631;28;20685;-55
2022/06/03 05:37:32;;;;;;;;;;;;;;;26.49;55.39;98898.63;2083537;28;19981;-56
2022/06/03 05:38:44;;;;;;;;;;;;;;;26.45;55.17;98897.44;2084260;28;20792;-56
2022/06/03 05:39:59;;;;;;;;;;;;;;;26.46;55.69;98906.44;2084800;28;19939;-58
2022/06/03 05:42:23;;;;;;;;;;;;;;;26.45;55.76;98904.78;2080027;28;19974;-54
2022/06/03 05:42:51;;;;;;;;;;;;;;;26.45;55.79;98902.06;2081076;28;20395;-51
2022/06/03 05:44:00;;;;;;;;;;;;;;;26.46;55.71;98899.09;2079048;28;19939;-53
2022/06/03 05:45:15;;;;;;;;;;;;;;;26.48;55.52;98896.94;2081730;28;19928;-55
2022/06/03 05:46:19;;;;;;;;;;;;;;;26.44;55.80;98898.53;2072756;28;19929;-58
2022/06/03 05:47:23;;;;;;;;;;;;;;;26.43;55.54;98888.72;2084055;28;19981;-58
2022/06/03 05:48:28;;;;;;;;;;;;;;;26.44;55.41;98895.81;2082366;28;19929;-58
2022/06/03 05:49:34;;;;;;;;;;;;;;;26.44;55.63;98892.25;2077750;28;19928;-56
2022/06/03 05:50:41;;;;;;;;;;;;;;;26.45;55.41;98885.75;2080628;28;19939;-58
2022/06/03 05:51:50;;;;;;;;;;;;;;;26.46;55.45;98888.22;2080166;28;19936;-56
2022/06/03 05:53:02;;;;;;;;;;;;;;;26.48;55.41;98877.09;2079425;28;22201;-53
2022/06/03 05:54:07;;;;;;;;;;;;;;;26.47;55.56;98881.72;2078755;28;19939;-59
2022/06/03 05:55:15;;;;;;;;;;;;;;;26.45;55.63;98883.03;2082727;28;19932;-58
2022/06/03 05:56:29;;;;;;;;;;;;;;;26.41;55.81;98888.16;2080328;28;20059;-56
2022/06/03 05:57:35;;;;;;;;;;;;;;;26.43;55.55;98883.28;2081865;28;20884;-54
2022/06/03 05:58:44;;;;;;;;;;;;;;;26.44;56.00;98884.09;2075384;28;20290;-52
2022/06/03 05:59:55;;;;;;;;;;;;;;;26.45;55.88;98886.56;2081033;28;19938;-54
2022/06/03 06:01:11;;;;;;;;;;;;;;;26.46;55.99;98904.53;2082769;28;19932;-57
2022/06/03 06:02:19;;;;;;;;;;;;;;;26.46;55.70;98895.56;2080996;28;19929;-54
2022/06/03 06:03:26;;;;;;;;;;;;;;;26.46;55.88;98899.09;2080589;28;19981;-57
2022/06/03 06:04:35;;;;;;;;;;;;;;;26.47;54.86;98899.94;2082123;28;20796;-54
2022/06/03 06:05:39;;;;;;;;;;;;;;;26.48;54.85;98898.84;2081250;28;19937;-54
2022/06/03 06:06:52;;;;;;;;;;;;;;;26.47;54.61;98895.31;2080430;28;20365;-54
2022/06/03 06:07:58;;;;;;;;;;;;;;;26.46;54.66;98884.66;2081626;28;20040;-52
2022/06/03 06:09:17;;;;;;;;;;;;;;;26.45;54.58;98883.84;2077284;28;19989;-54
2022/06/03 06:10:26;;;;;;;;;;;;;;;26.44;54.12;98882.22;2080901;28;19929;-54
2022/06/03 06:11:30;;;;;;;;;;;;;;;26.45;54.37;98883.84;2082746;28;19936;-54
2022/06/03 06:12:43;;;;;;;;;;;;;;;26.42;54.45;98878.91;2080517;28;19951;-54
2022/06/03 06:14:05;;;;;;;;;;;;;;;26.42;54.42;98887.06;2079373;28;19929;-54
2022/06/03 06:15:18;;;;;;;;;;;;;;;26.44;54.41;98895.81;2082036;28;19928;-53
2022/06/03 06:16:21;;;;;;;;;;;;;;;26.45;54.29;98883.03;2083062;28;19929;-51
2022/06/03 06:17:42;;;;;;;;;;;;;;;26.44;54.23;98881.38;2079349;28;19928;-55
2022/06/03 06:18:48;;;;;;;;;;;;;;;26.45;54.36;98880.31;2077561;28;19947;-55
2022/06/03 06:19:53;;;;;;;;;;;;;;;26.45;55.06;98874.88;2081391;28;19935;-53
2022/06/03 06:20:58;;;;;;;;;;;;;;;26.42;55.21;98875.38;2078332;28;19933;-52
2022/06/03 06:22:05;;;;;;;;;;;;;;;26.43;54.22;98877.84;2079405;28;19968;-55
2022/06/03 06:23:12;;;;;;;;;;;;;;;26.43;53.92;98877.84;2080761;28;19939;-54
2022/06/03 06:24:17;;;;;;;;;;;;;;;26.43;53.74;98877.84;2079995;28;19989;-54
2022/06/03 06:25:21;;;;;;;;;;;;;;;26.44;53.92;98867.78;2081644;28;19928;-54
2022/06/03 06:26:40;;;;;;;;;;;;;;;26.41;54.32;98862.84;2081649;28;19935;-53
2022/06/03 06:27:59;;;;;;;;;;;;;;;26.41;54.45;98852.81;2076390;28;19939;-53
2022/06/03 06:29:13;;;;;;;;;;;;;;;26.41;54.51;98854.69;2078111;28;19935;-53
2022/06/03 06:30:28;;;;;;;;;;;;;;;26.40;55.00;98853.84;2083282;28;19931;-55
2022/06/03 06:31:42;;;;;;;;;;;;;;;26.40;54.92;98850.31;2079470;28;19939;-53
2022/06/03 06:32:58;;;;;;;;;;;;;;;26.41;55.20;98846.50;2080432;28;19978;-53
2022/06/03 06:34:12;;;;;;;;;;;;;;;26.43;54.81;98844.38;2077301;28;19929;-55
2022/06/03 06:35:49;;;;;;;;;;;;;;;26.42;55.08;98843.56;2080222;28;20749;-53
2022/06/03 06:37:08;;;;;;;;;;;;;;;26.42;55.72;98835.41;2076939;28;19929;-54
2022/06/03 06:38:11;;;;;;;;;;;;;;;26.44;55.86;98825.09;2080369;28;19935;-53